Areial, Brazil

6:32 PM -03 on March 28, 2017 (GMT -0300)
Salvador | | Change Station

Elev 0 ft 13.00 °S, 38.50 °W | Updated 14 minutes ago

Clear
Clear
82.9 °F
Feels Like 90 °F
N
0.0
Wind Variable Wind from North
Gusts 1.2 mph

Today
High -- | Low -- °F
--% Chance of Precip.
Yesterday
High -- | Low -- °F
Precip. -- in
Pressure 29.83 in
Visibility 6.2 miles
Clouds Few 2300 ft
Heat Index 90 °F
Dew Point 76 °F
Humidity 78%
Rainfall 0.00 in
Snow Depth Not available.
5:38 AM 5:39 PM
New Moon, 1% visible
METAR SBSV 282100Z 09011KT 9999 FEW023 28/23 Q1010
Pressure 29.83 in
Visibility 6.2 miles
Clouds Few 2300 ft
Heat Index 90 °F
Dew Point 76 °F
Humidity 78%
Rainfall 0.00 in
Snow Depth Not available.
5:38 AM 5:39 PM
New Moon, 1% visible
METAR SBSV 282100Z 09011KT 9999 FEW023 28/23 Q1010

Get Severe Weather Alerts

Thanks for signing up!

Be on the lookout for a verification email in your inbox.

You'll start receiving the daily forecast at 8 AM.

×

10-Day Weather Forecast

No radar image for this location.
×

Almanac

Astronomy

Mar. 28, 2017 Rise Set
Actual Time
Civil Twilight
Nautical Twilight
Astronomical Twilight
Moon
Length of Visible Light
Length of Day
Tomorrow will be .
, % of the Moon is Illuminated

Today's Extremes

Country Highs Country Lows

Community

WunderPhotos

Upload Photos

1,962,540 photos uploaded!

WunderBlog® & News

Nearby

Air Quality

  Air Quality AQ Index Pollutant
Not available.

Snow Depth

Station Depth Elevation

Earthquake Activity

City Distance Mag. Time & Date
Minimum magnitude displayed is 2.5.

Earthquake Activity

City Distance Mag. Time & Date
Minimum magnitude displayed is 2.5.

Coastal Water Temperatures

Place Temperature

Stations

Nearby Weather Stations

Station Location Temp. Windchill Dew Point Humidity Wind Precip. Elev Updated Type